WIDD METAR and TAF | Updated Today

WIDD METAR

Hang Nadim International Airport

Observation time: 38 min. ago

WIDD 200700Z 14003KT 9999 FEW013CB SCT014 27/26 Q1010 NOSIG RMK CB TO N AND E

Need help? Read our tutorial on how to read METARs or read the parsed version below.

Hang Nadim International Airport (WIDD) METAR

  • Weather conditions on Fri, 20 May 2022 07:00:00 +0000 (38 min. ago):
  • Present conditions: Dry
  • Clouds: A few at 396 meters, cumulonimbus; scattered at 427 meters
  • Visibility: Greater than 10 km
  • Wind: 140 degrees at 3 knots
  • Temperature: 27 celsius
  • Dew point: 26 celsius
  • Pressure: 1010 millibars
  • Remarks: CB TO N AND E


Useful to know...

WIDD TAF

Hang Nadim International Airport

TAF WIDD 200500Z 2006/2106 16008KT 9999 SCT014 PROB30 TEMPO 2006/2009 5000 -TSRA FEW013CB
Observation time: 2:38 hr. ago
Need help? Read our tutorial on how to read TAFs or read the parsed version below.

Parsed version of TAF for Hang Nadim International Airport (WIDD)

  • From 20 May at 06:00 UTC, to day 21 of the month at 06:00 UTC
  • Clouds: Scattered at 427 meters
  • Visibility: Greater than 10 km
  • Wind: 160 degrees at 8
  • Expected to arise temporarily, from 20 May at 06:00 UTC, to day 20 of the month at 09:00 UTC
    Probability of 30%
  • Clouds: A few at 396 meters, cumulonimbus
  • Visibility: 5000 meters
  • Other: Light thunderstorms rain